sensor_id;sensor_type;location;lat;lon;timestamp;pressure;altitude;pressure_sealevel;temperature;humidity
53011;BME280;42803;55.762;38.084;2023-04-08T00:01:22;100698.34;;;0.42;66.20
53011;BME280;42803;55.762;38.084;2023-04-08T00:03:53;100697.94;;;0.39;66.45
53011;BME280;42803;55.762;38.084;2023-04-08T00:06:23;100691.97;;;0.33;66.74
53011;BME280;42803;55.762;38.084;2023-04-08T00:08:53;100693.69;;;0.27;66.88
53011;BME280;42803;55.762;38.084;2023-04-08T00:11:22;100695.44;;;0.20;67.63
53011;BME280;42803;55.762;38.084;2023-04-08T00:13:51;100688.47;;;0.19;67.73
53011;BME280;42803;55.762;38.084;2023-04-08T00:16:20;100697.38;;;0.16;68.10
53011;BME280;42803;55.762;38.084;2023-04-08T00:18:50;100698.19;;;0.09;68.53
53011;BME280;42803;55.762;38.084;2023-04-08T00:21:20;100698.50;;;0.05;68.87
53011;BME280;42803;55.762;38.084;2023-04-08T00:23:50;100698.25;;;0.04;69.02
53011;BME280;42803;55.762;38.084;2023-04-08T00:26:19;100694.78;;;0.03;68.85
53011;BME280;42803;55.762;38.084;2023-04-08T00:28:49;100699.91;;;0.03;68.89
53011;BME280;42803;55.762;38.084;2023-04-08T00:31:18;100697.63;;;-0.01;69.19
53011;BME280;42803;55.762;38.084;2023-04-08T00:33:49;100700.19;;;-0.01;68.80
53011;BME280;42803;55.762;38.084;2023-04-08T00:36:21;100707.09;;;-0.07;69.60
53011;BME280;42803;55.762;38.084;2023-04-08T00:38:51;100697.75;;;-0.07;69.77
53011;BME280;42803;55.762;38.084;2023-04-08T00:41:21;100701.72;;;-0.09;69.42
53011;BME280;42803;55.762;38.084;2023-04-08T00:43:51;100702.50;;;-0.15;70.01
53011;BME280;42803;55.762;38.084;2023-04-08T00:46:20;100699.84;;;-0.22;69.87
53011;BME280;42803;55.762;38.084;2023-04-08T00:48:49;100697.56;;;-0.27;70.24
53011;BME280;42803;55.762;38.084;2023-04-08T00:51:20;100704.53;;;-0.26;70.01
53011;BME280;42803;55.762;38.084;2023-04-08T00:53:49;100697.44;;;-0.34;70.11
53011;BME280;42803;55.762;38.084;2023-04-08T00:56:18;100698.50;;;-0.44;70.62
53011;BME280;42803;55.762;38.084;2023-04-08T00:58:48;100699.09;;;-0.53;71.05
53011;BME280;42803;55.762;38.084;2023-04-08T01:01:32;100709.13;;;-0.54;71.37
53011;BME280;42803;55.762;38.084;2023-04-08T01:04:09;100703.84;;;-0.61;71.16
53011;BME280;42803;55.762;38.084;2023-04-08T01:06:48;100702.28;;;-0.66;71.46
53011;BME280;42803;55.762;38.084;2023-04-08T01:09:20;100701.47;;;-0.72;71.44
53011;BME280;42803;55.762;38.084;2023-04-08T01:11:52;100699.16;;;-0.77;71.63
53011;BME280;42803;55.762;38.084;2023-04-08T01:14:24;100701.06;;;-0.81;71.98
53011;BME280;42803;55.762;38.084;2023-04-08T01:16:56;100695.41;;;-0.91;72.27
53011;BME280;42803;55.762;38.084;2023-04-08T01:19:28;100703.84;;;-0.98;72.55
53011;BME280;42803;55.762;38.084;2023-04-08T01:22:04;100704.13;;;-1.02;72.79
53011;BME280;42803;55.762;38.084;2023-04-08T01:24:39;100704.63;;;-1.05;72.97
53011;BME280;42803;55.762;38.084;2023-04-08T01:27:12;100699.78;;;-1.09;73.07
53011;BME280;42803;55.762;38.084;2023-04-08T01:29:42;100706.81;;;-1.13;73.55
53011;BME280;42803;55.762;38.084;2023-04-08T01:32:13;100710.28;;;-1.13;73.84
53011;BME280;42803;55.762;38.084;2023-04-08T01:34:44;100704.25;;;-1.13;73.93
53011;BME280;42803;55.762;38.084;2023-04-08T01:37:14;100705.00;;;-1.20;74.34
53011;BME280;42803;55.762;38.084;2023-04-08T01:39:44;100700.66;;;-1.27;74.55
53011;BME280;42803;55.762;38.084;2023-04-08T01:42:16;100709.53;;;-1.30;74.57
53011;BME280;42803;55.762;38.084;2023-04-08T01:44:46;100708.16;;;-1.34;75.36
53011;BME280;42803;55.762;38.084;2023-04-08T01:47:17;100702.63;;;-1.37;75.17
53011;BME280;42803;55.762;38.084;2023-04-08T01:49:47;100705.47;;;-1.41;75.57
53011;BME280;42803;55.762;38.084;2023-04-08T01:52:17;100699.47;;;-1.47;76.30
53011;BME280;42803;55.762;38.084;2023-04-08T01:54:48;100707.16;;;-1.47;76.21
53011;BME280;42803;55.762;38.084;2023-04-08T01:57:23;100706.06;;;-1.55;76.57
53011;BME280;42803;55.762;38.084;2023-04-08T01:59:52;100705.63;;;-1.58;76.21
53011;BME280;42803;55.762;38.084;2023-04-08T02:02:25;100708.00;;;-1.65;76.86
53011;BME280;42803;55.762;38.084;2023-04-08T02:04:56;100711.47;;;-1.64;77.09
53011;BME280;42803;55.762;38.084;2023-04-08T02:07:26;100708.00;;;-1.65;77.09
53011;BME280;42803;55.762;38.084;2023-04-08T02:09:55;100715.03;;;-1.69;78.03
53011;BME280;42803;55.762;38.084;2023-04-08T02:12:26;100711.34;;;-1.72;78.18
53011;BME280;42803;55.762;38.084;2023-04-08T02:14:56;100712.72;;;-1.74;78.20
53011;BME280;42803;55.762;38.084;2023-04-08T02:17:30;100710.44;;;-1.78;78.70
53011;BME280;42803;55.762;38.084;2023-04-08T02:20:05;100713.72;;;-1.79;78.68
53011;BME280;42803;55.762;38.084;2023-04-08T02:22:39;100715.34;;;-1.79;78.87
53011;BME280;42803;55.762;38.084;2023-04-08T02:25:13;100708.63;;;-1.84;78.88
53011;BME280;42803;55.762;38.084;2023-04-08T02:27:45;100715.84;;;-1.87;79.00
53011;BME280;42803;55.762;38.084;2023-04-08T02:30:16;100708.41;;;-1.86;79.48
53011;BME280;42803;55.762;38.084;2023-04-08T02:32:47;100710.47;;;-1.83;78.91
53011;BME280;42803;55.762;38.084;2023-04-08T02:35:18;100710.00;;;-1.81;78.56
53011;BME280;42803;55.762;38.084;2023-04-08T02:37:48;100715.13;;;-1.81;78.64
53011;BME280;42803;55.762;38.084;2023-04-08T02:40:27;100719.31;;;-1.81;79.32
53011;BME280;42803;55.762;38.084;2023-04-08T02:42:59;100720.72;;;-1.83;79.84
53011;BME280;42803;55.762;38.084;2023-04-08T02:45:30;100716.53;;;-1.83;79.56
53011;BME280;42803;55.762;38.084;2023-04-08T02:48:00;100725.78;;;-1.78;80.22
53011;BME280;42803;55.762;38.084;2023-04-08T02:50:29;100724.34;;;-1.70;79.57
53011;BME280;42803;55.762;38.084;2023-04-08T02:52:58;100728.19;;;-1.61;79.18
53011;BME280;42803;55.762;38.084;2023-04-08T02:55:30;100728.81;;;-1.51;78.98
53011;BME280;42803;55.762;38.084;2023-04-08T02:58:00;100726.44;;;-1.43;79.03
53011;BME280;42803;55.762;38.084;2023-04-08T03:00:29;100731.00;;;-1.35;78.35
53011;BME280;42803;55.762;38.084;2023-04-08T03:02:58;100729.53;;;-1.28;78.18
53011;BME280;42803;55.762;38.084;2023-04-08T03:05:27;100723.88;;;-1.19;78.26
53011;BME280;42803;55.762;38.084;2023-04-08T03:07:57;100734.00;;;-1.08;77.97
53011;BME280;42803;55.762;38.084;2023-04-08T03:10:26;100720.63;;;-1.00;76.71
53011;BME280;42803;55.762;38.084;2023-04-08T03:12:55;100729.19;;;-0.94;76.53
53011;BME280;42803;55.762;38.084;2023-04-08T03:15:25;100727.00;;;-0.85;76.28
53011;BME280;42803;55.762;38.084;2023-04-08T03:17:54;100731.13;;;-0.80;75.95
53011;BME280;42803;55.762;38.084;2023-04-08T03:20:24;100728.50;;;-0.75;76.68
53011;BME280;42803;55.762;38.084;2023-04-08T03:22:53;100733.97;;;-0.66;76.08
53011;BME280;42803;55.762;38.084;2023-04-08T03:25:22;100730.22;;;-0.62;76.01
53011;BME280;42803;55.762;38.084;2023-04-08T03:27:51;100723.66;;;-0.60;76.07
53011;BME280;42803;55.762;38.084;2023-04-08T03:30:21;100735.34;;;-0.62;76.47
53011;BME280;42803;55.762;38.084;2023-04-08T03:32:52;100736.50;;;-0.60;75.91
53011;BME280;42803;55.762;38.084;2023-04-08T03:35:21;100725.22;;;-0.55;76.10
53011;BME280;42803;55.762;38.084;2023-04-08T03:37:50;100736.63;;;-0.53;76.27
53011;BME280;42803;55.762;38.084;2023-04-08T03:40:21;100733.78;;;-0.49;76.64
53011;BME280;42803;55.762;38.084;2023-04-08T03:42:50;100739.75;;;-0.43;76.34
53011;BME280;42803;55.762;38.084;2023-04-08T03:45:19;100733.13;;;-0.35;76.27
53011;BME280;42803;55.762;38.084;2023-04-08T03:47:48;100728.38;;;-0.27;75.83
53011;BME280;42803;55.762;38.084;2023-04-08T03:50:19;100731.03;;;-0.19;75.86
53011;BME280;42803;55.762;38.084;2023-04-08T03:52:48;100729.31;;;-0.13;75.83
53011;BME280;42803;55.762;38.084;2023-04-08T03:55:17;100729.88;;;-0.03;75.27
53011;BME280;42803;55.762;38.084;2023-04-08T03:57:46;100732.97;;;0.07;75.19
53011;BME280;42803;55.762;38.084;2023-04-08T04:00:15;100740.13;;;0.15;75.00
53011;BME280;42803;55.762;38.084;2023-04-08T04:02:44;100731.38;;;0.20;74.52
53011;BME280;42803;55.762;38.084;2023-04-08T04:05:13;100729.38;;;0.31;74.54
53011;BME280;42803;55.762;38.084;2023-04-08T04:07:44;100729.38;;;0.43;74.50
53011;BME280;42803;55.762;38.084;2023-04-08T04:10:13;100736.91;;;0.55;73.54
53011;BME280;42803;55.762;38.084;2023-04-08T04:12:42;100742.34;;;0.63;73.54
53011;BME280;42803;55.762;38.084;2023-04-08T04:15:11;100744.53;;;0.73;73.56
53011;BME280;42803;55.762;38.084;2023-04-08T04:17:40;100748.31;;;0.82;73.41
53011;BME280;42803;55.762;38.084;2023-04-08T04:20:10;100750.06;;;0.89;72.90
53011;BME280;42803;55.762;38.084;2023-04-08T04:22:39;100747.00;;;1.04;72.68
53011;BME280;42803;55.762;38.084;2023-04-08T04:25:10;100752.41;;;1.13;72.32
53011;BME280;42803;55.762;38.084;2023-04-08T04:27:39;100746.66;;;1.21;71.73
53011;BME280;42803;55.762;38.084;2023-04-08T04:30:09;100750.25;;;1.29;71.77
53011;BME280;42803;55.762;38.084;2023-04-08T04:32:42;100748.19;;;1.39;71.01
53011;BME280;42803;55.762;38.084;2023-04-08T04:35:11;100740.22;;;1.50;70.90
53011;BME280;42803;55.762;38.084;2023-04-08T04:37:40;100750.78;;;1.59;70.83
53011;BME280;42803;55.762;38.084;2023-04-08T04:40:11;100749.22;;;1.66;70.36
53011;BME280;42803;55.762;38.084;2023-04-08T04:42:40;100751.38;;;1.76;70.11
53011;BME280;42803;55.762;38.084;2023-04-08T04:45:10;100749.41;;;1.81;69.76
53011;BME280;42803;55.762;38.084;2023-04-08T04:47:39;100741.09;;;1.96;69.72
53011;BME280;42803;55.762;38.084;2023-04-08T04:50:08;100744.34;;;2.08;69.09
53011;BME280;42803;55.762;38.084;2023-04-08T04:52:37;100739.38;;;2.09;68.88
53011;BME280;42803;55.762;38.084;2023-04-08T04:55:08;100742.75;;;2.15;68.88
53011;BME280;42803;55.762;38.084;2023-04-08T04:57:40;100742.81;;;2.23;69.62
53011;BME280;42803;55.762;38.084;2023-04-08T05:00:11;100739.72;;;2.25;68.98
53011;BME280;42803;55.762;38.084;2023-04-08T05:02:41;100742.56;;;2.34;68.60
53011;BME280;42803;55.762;38.084;2023-04-08T05:05:10;100748.75;;;2.49;68.35
53011;BME280;42803;55.762;38.084;2023-04-08T05:07:40;100744.94;;;2.59;68.31
53011;BME280;42803;55.762;38.084;2023-04-08T05:10:09;100744.47;;;2.69;67.80
53011;BME280;42803;55.762;38.084;2023-04-08T05:12:40;100737.94;;;2.85;67.96
53011;BME280;42803;55.762;38.084;2023-04-08T05:15:11;100746.59;;;2.86;67.46
53011;BME280;42803;55.762;38.084;2023-04-08T05:17:40;100752.25;;;3.03;67.12
53011;BME280;42803;55.762;38.084;2023-04-08T05:20:10;100745.34;;;3.24;66.65
53011;BME280;42803;55.762;38.084;2023-04-08T05:22:39;100755.50;;;3.22;66.30
53011;BME280;42803;55.762;38.084;2023-04-08T05:25:09;100751.88;;;3.34;66.49
53011;BME280;42803;55.762;38.084;2023-04-08T05:27:40;100755.44;;;3.49;66.20
53011;BME280;42803;55.762;38.084;2023-04-08T05:30:10;100756.56;;;3.58;66.03
53011;BME280;42803;55.762;38.084;2023-04-08T05:32:39;100756.00;;;3.54;65.89
53011;BME280;42803;55.762;38.084;2023-04-08T05:35:09;100762.28;;;3.56;66.00
53011;BME280;42803;55.762;38.084;2023-04-08T05:37:38;100762.19;;;3.76;65.82
53011;BME280;42803;55.762;38.084;2023-04-08T05:40:08;100764.44;;;3.94;65.65
53011;BME280;42803;55.762;38.084;2023-04-08T05:42:40;100767.06;;;4.15;64.56
53011;BME280;42803;55.762;38.084;2023-04-08T05:45:12;100765.63;;;4.32;64.02
53011;BME280;42803;55.762;38.084;2023-04-08T05:47:41;100758.06;;;4.48;64.07
53011;BME280;42803;55.762;38.084;2023-04-08T05:50:11;100772.28;;;4.66;63.22
53011;BME280;42803;55.762;38.084;2023-04-08T05:52:41;100766.00;;;4.71;62.89
53011;BME280;42803;55.762;38.084;2023-04-08T05:55:12;100761.91;;;4.73;62.82
53011;BME280;42803;55.762;38.084;2023-04-08T05:57:43;100766.00;;;4.78;62.73
53011;BME280;42803;55.762;38.084;2023-04-08T06:00:13;100765.25;;;4.79;62.64
53011;BME280;42803;55.762;38.084;2023-04-08T06:02:43;100765.00;;;5.06;62.50
53011;BME280;42803;55.762;38.084;2023-04-08T06:05:13;100762.78;;;5.16;61.48
53011;BME280;42803;55.762;38.084;2023-04-08T06:08:00;100762.94;;;5.25;61.70
53011;BME280;42803;55.762;38.084;2023-04-08T06:10:29;100761.75;;;5.44;61.20
53011;BME280;42803;55.762;38.084;2023-04-08T06:13:00;100762.47;;;5.57;60.36
53011;BME280;42803;55.762;38.084;2023-04-08T06:15:29;100755.88;;;5.75;60.22
53011;BME280;42803;55.762;38.084;2023-04-08T06:17:59;100757.53;;;5.82;59.85
53011;BME280;42803;55.762;38.084;2023-04-08T06:20:28;100754.69;;;5.95;59.84
53011;BME280;42803;55.762;38.084;2023-04-08T06:22:57;100758.41;;;5.97;59.55
53011;BME280;42803;55.762;38.084;2023-04-08T06:25:26;100756.47;;;6.10;59.29
53011;BME280;42803;55.762;38.084;2023-04-08T06:27:55;100755.44;;;6.24;59.02
53011;BME280;42803;55.762;38.084;2023-04-08T06:30:25;100755.00;;;6.35;58.53
53011;BME280;42803;55.762;38.084;2023-04-08T06:32:54;100756.72;;;6.50;57.98
53011;BME280;42803;55.762;38.084;2023-04-08T06:35:42;100749.00;;;6.66;57.35
53011;BME280;42803;55.762;38.084;2023-04-08T06:38:11;100754.53;;;6.69;57.49
53011;BME280;42803;55.762;38.084;2023-04-08T06:41:01;100763.13;;;6.84;57.47
53011;BME280;42803;55.762;38.084;2023-04-08T06:43:49;100760.06;;;6.95;57.02
53011;BME280;42803;55.762;38.084;2023-04-08T06:46:38;100756.91;;;7.14;57.10
53011;BME280;42803;55.762;38.084;2023-04-08T06:49:24;100756.28;;;7.16;57.00
53011;BME280;42803;55.762;38.084;2023-04-08T06:51:54;100764.84;;;7.15;56.08
53011;BME280;42803;55.762;38.084;2023-04-08T06:54:41;100759.22;;;7.03;56.15
53011;BME280;42803;55.762;38.084;2023-04-08T06:57:29;100762.53;;;7.25;56.62
53011;BME280;42803;55.762;38.084;2023-04-08T07:00:17;100762.59;;;7.18;56.10
53011;BME280;42803;55.762;38.084;2023-04-08T07:03:06;100765.69;;;7.39;55.69
53011;BME280;42803;55.762;38.084;2023-04-08T07:05:35;100757.56;;;7.51;55.46
53011;BME280;42803;55.762;38.084;2023-04-08T07:08:05;100759.97;;;7.66;55.26
53011;BME280;42803;55.762;38.084;2023-04-08T07:13:22;100752.97;;;7.89;54.59
53011;BME280;42803;55.762;38.084;2023-04-08T07:15:51;100749.41;;;8.04;54.54
53011;BME280;42803;55.762;38.084;2023-04-08T07:18:21;100744.34;;;8.22;54.73
53011;BME280;42803;55.762;38.084;2023-04-08T07:20:51;100748.69;;;8.54;54.23
53011;BME280;42803;55.762;38.084;2023-04-08T07:23:21;100740.88;;;8.88;53.52
53011;BME280;42803;55.762;38.084;2023-04-08T07:25:50;100747.13;;;8.81;52.99
53011;BME280;42803;55.762;38.084;2023-04-08T07:28:20;100743.00;;;8.83;52.93
53011;BME280;42803;55.762;38.084;2023-04-08T07:30:49;100743.78;;;8.82;52.38
53011;BME280;42803;55.762;38.084;2023-04-08T07:33:18;100740.16;;;8.97;52.47
53011;BME280;42803;55.762;38.084;2023-04-08T07:35:49;100729.81;;;9.32;52.58
53011;BME280;42803;55.762;38.084;2023-04-08T07:38:18;100738.44;;;9.66;51.93
53011;BME280;42803;55.762;38.084;2023-04-08T07:40:47;100734.41;;;9.43;51.73
53011;BME280;42803;55.762;38.084;2023-04-08T07:43:16;100733.34;;;9.67;53.46
53011;BME280;42803;55.762;38.084;2023-04-08T07:45:46;100744.22;;;10.07;51.84
53011;BME280;42803;55.762;38.084;2023-04-08T07:48:15;100736.44;;;9.81;51.35
53011;BME280;42803;55.762;38.084;2023-04-08T07:50:44;100732.09;;;9.98;52.60
53011;BME280;42803;55.762;38.084;2023-04-08T07:53:35;100728.97;;;10.37;50.93
53011;BME280;42803;55.762;38.084;2023-04-08T07:56:10;100726.53;;;10.30;49.59
53011;BME280;42803;55.762;38.084;2023-04-08T07:58:40;100736.22;;;10.14;50.87
53011;BME280;42803;55.762;38.084;2023-04-08T08:01:16;100733.84;;;10.52;50.75
53011;BME280;42803;55.762;38.084;2023-04-08T08:03:46;100736.06;;;10.21;49.24
53011;BME280;42803;55.762;38.084;2023-04-08T08:06:16;100727.34;;;10.12;49.72
53011;BME280;42803;55.762;38.084;2023-04-08T08:08:46;100727.63;;;10.06;50.35
53011;BME280;42803;55.762;38.084;2023-04-08T08:11:16;100730.25;;;10.06;50.07
53011;BME280;42803;55.762;38.084;2023-04-08T08:13:45;100722.09;;;10.20;49.74
53011;BME280;42803;55.762;38.084;2023-04-08T08:16:15;100721.59;;;10.51;49.89
53011;BME280;42803;55.762;38.084;2023-04-08T08:18:44;100714.50;;;10.86;49.75
53011;BME280;42803;55.762;38.084;2023-04-08T08:21:14;100715.91;;;11.37;48.80
53011;BME280;42803;55.762;38.084;2023-04-08T08:23:43;100715.34;;;11.04;48.11
53011;BME280;42803;55.762;38.084;2023-04-08T08:26:14;100716.56;;;11.07;48.13
53011;BME280;42803;55.762;38.084;2023-04-08T08:28:43;100709.81;;;11.01;47.68
53011;BME280;42803;55.762;38.084;2023-04-08T08:31:13;100717.91;;;10.85;47.63
53011;BME280;42803;55.762;38.084;2023-04-08T08:33:42;100716.31;;;10.59;48.21
53011;BME280;42803;55.762;38.084;2023-04-08T08:36:11;100705.50;;;10.37;48.80
53011;BME280;42803;55.762;38.084;2023-04-08T08:38:40;100706.66;;;10.58;49.35
53011;BME280;42803;55.762;38.084;2023-04-08T08:41:09;100706.13;;;10.71;49.09
53011;BME280;42803;55.762;38.084;2023-04-08T08:43:40;100701.88;;;10.90;48.15
53011;BME280;42803;55.762;38.084;2023-04-08T08:46:09;100694.69;;;11.15;47.38
53011;BME280;42803;55.762;38.084;2023-04-08T08:48:39;100699.16;;;11.54;47.69
53011;BME280;42803;55.762;38.084;2023-04-08T08:51:09;100699.28;;;11.75;46.70
53011;BME280;42803;55.762;38.084;2023-04-08T08:53:38;100704.00;;;11.87;45.86
53011;BME280;42803;55.762;38.084;2023-04-08T08:56:16;100691.38;;;11.45;46.32
53011;BME280;42803;55.762;38.084;2023-04-08T08:58:47;100699.84;;;11.62;47.39
53011;BME280;42803;55.762;38.084;2023-04-08T09:01:33;100698.84;;;12.08;46.49
53011;BME280;42803;55.762;38.084;2023-04-08T09:04:10;100693.09;;;12.12;45.93
53011;BME280;42803;55.762;38.084;2023-04-08T09:06:41;100706.19;;;12.12;45.46
53011;BME280;42803;55.762;38.084;2023-04-08T09:09:12;100701.06;;;12.03;45.46
53011;BME280;42803;55.762;38.084;2023-04-08T09:11:44;100694.81;;;12.40;44.51
53011;BME280;42803;55.762;38.084;2023-04-08T09:14:19;100693.34;;;12.05;44.82
53011;BME280;42803;55.762;38.084;2023-04-08T09:16:48;100704.31;;;11.63;45.20
53011;BME280;42803;55.762;38.084;2023-04-08T09:19:18;100693.84;;;11.44;45.91
53011;BME280;42803;55.762;38.084;2023-04-08T09:22:05;100692.13;;;11.82;45.75
53011;BME280;42803;55.762;38.084;2023-04-08T09:24:35;100691.69;;;12.44;44.98
53011;BME280;42803;55.762;38.084;2023-04-08T09:27:06;100693.38;;;12.44;43.18
53011;BME280;42803;55.762;38.084;2023-04-08T09:29:36;100685.94;;;12.59;43.38
53011;BME280;42803;55.762;38.084;2023-04-08T09:32:07;100684.44;;;12.91;43.18
53011;BME280;42803;55.762;38.084;2023-04-08T09:34:36;100693.88;;;13.00;42.91
53011;BME280;42803;55.762;38.084;2023-04-08T09:37:06;100689.16;;;12.96;42.24
53011;BME280;42803;55.762;38.084;2023-04-08T09:39:35;100690.72;;;13.04;42.97
53011;BME280;42803;55.762;38.084;2023-04-08T09:42:06;100674.19;;;12.84;42.94
53011;BME280;42803;55.762;38.084;2023-04-08T09:44:43;100681.81;;;12.91;42.48
53011;BME280;42803;55.762;38.084;2023-04-08T09:47:18;100679.72;;;12.87;43.11
53011;BME280;42803;55.762;38.084;2023-04-08T09:49:57;100665.84;;;13.09;43.15
53011;BME280;42803;55.762;38.084;2023-04-08T09:52:33;100667.13;;;13.04;42.92
53011;BME280;42803;55.762;38.084;2023-04-08T09:55:08;100674.50;;;12.98;43.50
53011;BME280;42803;55.762;38.084;2023-04-08T09:57:43;100675.66;;;12.91;43.43
53011;BME280;42803;55.762;38.084;2023-04-08T10:00:17;100664.03;;;12.38;42.54
53011;BME280;42803;55.762;38.084;2023-04-08T10:02:54;100660.16;;;12.74;43.06
53011;BME280;42803;55.762;38.084;2023-04-08T10:05:24;100665.16;;;13.11;41.94
53011;BME280;42803;55.762;38.084;2023-04-08T10:07:55;100659.03;;;13.52;41.43
53011;BME280;42803;55.762;38.084;2023-04-08T10:10:26;100652.53;;;13.69;41.17
53011;BME280;42803;55.762;38.084;2023-04-08T10:12:55;100651.00;;;13.60;40.78
53011;BME280;42803;55.762;38.084;2023-04-08T10:15:32;100657.19;;;13.30;41.43
53011;BME280;42803;55.762;38.084;2023-04-08T10:18:30;100647.34;;;13.28;41.49
53011;BME280;42803;55.762;38.084;2023-04-08T10:21:00;100649.75;;;13.25;41.87
53011;BME280;42803;55.762;38.084;2023-04-08T10:23:52;100653.78;;;13.21;41.65
53011;BME280;42803;55.762;38.084;2023-04-08T10:26:32;100653.78;;;13.11;42.16
53011;BME280;42803;55.762;38.084;2023-04-08T10:29:30;100640.56;;;13.30;41.18
53011;BME280;42803;55.762;38.084;2023-04-08T10:32:01;100641.47;;;13.51;40.85
53011;BME280;42803;55.762;38.084;2023-04-08T10:34:30;100647.72;;;13.12;41.32
53011;BME280;42803;55.762;38.084;2023-04-08T10:36:59;100647.31;;;12.66;42.48
53011;BME280;42803;55.762;38.084;2023-04-08T10:39:30;100646.44;;;12.86;42.70
53011;BME280;42803;55.762;38.084;2023-04-08T10:42:00;100648.03;;;13.25;42.29
53011;BME280;42803;55.762;38.084;2023-04-08T10:44:30;100635.41;;;13.52;41.37
53011;BME280;42803;55.762;38.084;2023-04-08T10:47:01;100645.41;;;13.25;40.73
53011;BME280;42803;55.762;38.084;2023-04-08T10:49:33;100641.47;;;13.51;40.78
53011;BME280;42803;55.762;38.084;2023-04-08T10:52:06;100632.25;;;13.46;40.44
53011;BME280;42803;55.762;38.084;2023-04-08T10:54:45;100636.16;;;13.61;40.15
53011;BME280;42803;55.762;38.084;2023-04-08T10:57:15;100636.97;;;13.92;40.10
53011;BME280;42803;55.762;38.084;2023-04-08T10:59:51;100638.97;;;13.84;39.16
53011;BME280;42803;55.762;38.084;2023-04-08T11:02:31;100629.31;;;13.73;39.17
53011;BME280;42803;55.762;38.084;2023-04-08T11:05:02;100617.06;;;13.41;40.33
53011;BME280;42803;55.762;38.084;2023-04-08T11:07:31;100619.69;;;13.41;40.97
53011;BME280;42803;55.762;38.084;2023-04-08T11:10:04;100621.75;;;13.56;39.67
53011;BME280;42803;55.762;38.084;2023-04-08T11:12:34;100618.13;;;13.23;39.11
53011;BME280;42803;55.762;38.084;2023-04-08T11:15:04;100623.06;;;13.20;39.33
53011;BME280;42803;55.762;38.084;2023-04-08T11:17:38;100619.41;;;13.38;39.65
53011;BME280;42803;55.762;38.084;2023-04-08T11:20:08;100610.22;;;13.54;39.74
53011;BME280;42803;55.762;38.084;2023-04-08T11:22:38;100606.84;;;13.34;39.99
53011;BME280;42803;55.762;38.084;2023-04-08T11:25:08;100609.22;;;12.80;40.61
53011;BME280;42803;55.762;38.084;2023-04-08T11:27:38;100608.16;;;12.88;41.63
53011;BME280;42803;55.762;38.084;2023-04-08T11:30:08;100609.19;;;13.01;41.86
53011;BME280;42803;55.762;38.084;2023-04-08T11:32:40;100606.72;;;12.92;41.27
53011;BME280;42803;55.762;38.084;2023-04-08T11:35:10;100600.31;;;12.78;41.78
53011;BME280;42803;55.762;38.084;2023-04-08T11:37:40;100604.22;;;12.63;41.31
53011;BME280;42803;55.762;38.084;2023-04-08T11:40:10;100599.78;;;12.92;41.73
53011;BME280;42803;55.762;38.084;2023-04-08T11:42:40;100599.25;;;13.07;41.05
53011;BME280;42803;55.762;38.084;2023-04-08T11:45:12;100602.94;;;12.88;41.18
53011;BME280;42803;55.762;38.084;2023-04-08T11:47:44;100600.06;;;12.75;42.09
53011;BME280;42803;55.762;38.084;2023-04-08T11:50:22;100597.97;;;12.71;42.45
53011;BME280;42803;55.762;38.084;2023-04-08T11:52:52;100600.81;;;12.74;42.64
53011;BME280;42803;55.762;38.084;2023-04-08T11:55:23;100593.25;;;12.98;42.65
53011;BME280;42803;55.762;38.084;2023-04-08T11:57:54;100589.81;;;13.29;41.99
53011;BME280;42803;55.762;38.084;2023-04-08T12:00:23;100593.22;;;13.08;42.35
53011;BME280;42803;55.762;38.084;2023-04-08T12:02:56;100587.22;;;13.09;41.89
53011;BME280;42803;55.762;38.084;2023-04-08T12:05:25;100589.56;;;13.06;41.62
53011;BME280;42803;55.762;38.084;2023-04-08T12:07:54;100581.16;;;13.40;41.78
53011;BME280;42803;55.762;38.084;2023-04-08T12:10:23;100577.97;;;13.45;41.68
53011;BME280;42803;55.762;38.084;2023-04-08T12:12:53;100575.50;;;13.78;41.39
53011;BME280;42803;55.762;38.084;2023-04-08T12:15:22;100566.13;;;14.14;41.00
53011;BME280;42803;55.762;38.084;2023-04-08T12:17:51;100569.44;;;13.89;41.03
53011;BME280;42803;55.762;38.084;2023-04-08T12:20:22;100579.22;;;14.24;41.16
53011;BME280;42803;55.762;38.084;2023-04-08T12:22:51;100573.97;;;14.24;41.49
53011;BME280;42803;55.762;38.084;2023-04-08T12:25:20;100571.19;;;14.23;41.04
53011;BME280;42803;55.762;38.084;2023-04-08T12:27:49;100573.72;;;14.21;40.82
53011;BME280;42803;55.762;38.084;2023-04-08T12:30:18;100566.50;;;13.97;40.99
53011;BME280;42803;55.762;38.084;2023-04-08T12:32:47;100569.41;;;14.11;41.57
53011;BME280;42803;55.762;38.084;2023-04-08T12:35:17;100571.06;;;13.99;41.01
53011;BME280;42803;55.762;38.084;2023-04-08T12:37:47;100568.91;;;13.83;41.79
53011;BME280;42803;55.762;38.084;2023-04-08T12:40:16;100565.28;;;13.81;42.22
53011;BME280;42803;55.762;38.084;2023-04-08T12:42:47;100567.34;;;13.85;41.98
53011;BME280;42803;55.762;38.084;2023-04-08T12:45:16;100555.00;;;13.84;41.58
53011;BME280;42803;55.762;38.084;2023-04-08T12:47:45;100548.72;;;13.82;42.07
53011;BME280;42803;55.762;38.084;2023-04-08T12:50:14;100552.88;;;13.90;42.16
53011;BME280;42803;55.762;38.084;2023-04-08T12:52:43;100549.41;;;13.70;42.12
53011;BME280;42803;55.762;38.084;2023-04-08T12:55:14;100544.06;;;13.68;42.10
53011;BME280;42803;55.762;38.084;2023-04-08T12:57:44;100537.53;;;13.85;42.01
53011;BME280;42803;55.762;38.084;2023-04-08T13:00:14;100545.59;;;13.76;42.38
53011;BME280;42803;55.762;38.084;2023-04-08T13:02:43;100542.41;;;13.58;42.35
53011;BME280;42803;55.762;38.084;2023-04-08T13:05:12;100541.97;;;13.32;42.87
53011;BME280;42803;55.762;38.084;2023-04-08T13:07:41;100542.13;;;13.13;42.27